sensor_id;sensor_type;location;lat;lon;timestamp;P1;durP1;ratioP1;P2;durP2;ratioP2
10851;SDS011;5479;52.046;6.314;2022-08-19T00:01:53;16.40;;;14.80;;
10851;SDS011;5479;52.046;6.314;2022-08-19T00:04:26;16.80;;;15.10;;
10851;SDS011;5479;52.046;6.314;2022-08-19T00:07:01;17.10;;;15.40;;
10851;SDS011;5479;52.046;6.314;2022-08-19T00:09:32;16.40;;;14.57;;
10851;SDS011;5479;52.046;6.314;2022-08-19T00:12:02;16.93;;;15.23;;
10851;SDS011;5479;52.046;6.314;2022-08-19T00:14:30;17.33;;;14.97;;
10851;SDS011;5479;52.046;6.314;2022-08-19T00:16:59;17.20;;;15.60;;
10851;SDS011;5479;52.046;6.314;2022-08-19T00:19:29;17.17;;;15.50;;
10851;SDS011;5479;52.046;6.314;2022-08-19T00:21:57;18.80;;;16.15;;
10851;SDS011;5479;52.046;6.314;2022-08-19T00:24:27;17.00;;;15.20;;
10851;SDS011;5479;52.046;6.314;2022-08-19T00:26:55;17.27;;;15.47;;
10851;SDS011;5479;52.046;6.314;2022-08-19T00:29:25;17.70;;;15.97;;
10851;SDS011;5479;52.046;6.314;2022-08-19T00:31:53;16.50;;;14.80;;
10851;SDS011;5479;52.046;6.314;2022-08-19T00:34:23;17.07;;;15.37;;
10851;SDS011;5479;52.046;6.314;2022-08-19T00:36:55;16.53;;;14.90;;
10851;SDS011;5479;52.046;6.314;2022-08-19T00:39:25;16.87;;;15.17;;
10851;SDS011;5479;52.046;6.314;2022-08-19T00:41:53;15.47;;;13.87;;
10851;SDS011;5479;52.046;6.314;2022-08-19T00:44:22;17.47;;;15.47;;
10851;SDS011;5479;52.046;6.314;2022-08-19T00:46:55;16.60;;;14.90;;
10851;SDS011;5479;52.046;6.314;2022-08-19T00:49:26;17.50;;;15.73;;
10851;SDS011;5479;52.046;6.314;2022-08-19T00:51:57;16.87;;;14.87;;
10851;SDS011;5479;52.046;6.314;2022-08-19T00:54:29;17.00;;;15.20;;
10851;SDS011;5479;52.046;6.314;2022-08-19T00:56:59;18.37;;;16.07;;
10851;SDS011;5479;52.046;6.314;2022-08-19T00:59:39;17.77;;;15.97;;
10851;SDS011;5479;52.046;6.314;2022-08-19T01:02:09;18.37;;;16.47;;
10851;SDS011;5479;52.046;6.314;2022-08-19T01:04:37;17.63;;;15.90;;
10851;SDS011;5479;52.046;6.314;2022-08-19T01:07:05;17.37;;;15.60;;
10851;SDS011;5479;52.046;6.314;2022-08-19T01:09:34;16.70;;;15.07;;
10851;SDS011;5479;52.046;6.314;2022-08-19T01:12:02;16.97;;;15.20;;
10851;SDS011;5479;52.046;6.314;2022-08-19T01:14:31;17.57;;;15.70;;
10851;SDS011;5479;52.046;6.314;2022-08-19T01:17:01;19.00;;;16.20;;
10851;SDS011;5479;52.046;6.314;2022-08-19T01:19:30;19.50;;;16.37;;
10851;SDS011;5479;52.046;6.314;2022-08-19T01:22:03;19.47;;;17.27;;
10851;SDS011;5479;52.046;6.314;2022-08-19T01:24:38;17.93;;;16.13;;
10851;SDS011;5479;52.046;6.314;2022-08-19T01:27:06;18.43;;;16.57;;
10851;SDS011;5479;52.046;6.314;2022-08-19T01:29:38;18.50;;;16.60;;
10851;SDS011;5479;52.046;6.314;2022-08-19T01:32:08;18.80;;;16.80;;
10851;SDS011;5479;52.046;6.314;2022-08-19T01:34:38;19.33;;;17.23;;
10851;SDS011;5479;52.046;6.314;2022-08-19T01:37:07;19.37;;;17.43;;
10851;SDS011;5479;52.046;6.314;2022-08-19T01:39:46;18.83;;;16.93;;
10851;SDS011;5479;52.046;6.314;2022-08-19T01:42:15;19.90;;;17.60;;
10851;SDS011;5479;52.046;6.314;2022-08-19T01:44:42;17.70;;;15.93;;
10851;SDS011;5479;52.046;6.314;2022-08-19T01:47:11;18.33;;;16.40;;
10851;SDS011;5479;52.046;6.314;2022-08-19T01:49:39;19.10;;;16.33;;
10851;SDS011;5479;52.046;6.314;2022-08-19T01:52:07;15.60;;;14.00;;
10851;SDS011;5479;52.046;6.314;2022-08-19T01:54:35;16.43;;;14.73;;
10851;SDS011;5479;52.046;6.314;2022-08-19T01:57:05;16.43;;;14.83;;
10851;SDS011;5479;52.046;6.314;2022-08-19T01:59:36;19.20;;;17.20;;
10851;SDS011;5479;52.046;6.314;2022-08-19T02:02:05;17.57;;;15.77;;
10851;SDS011;5479;52.046;6.314;2022-08-19T02:04:33;17.47;;;15.77;;
10851;SDS011;5479;52.046;6.314;2022-08-19T02:07:01;17.47;;;15.77;;
10851;SDS011;5479;52.046;6.314;2022-08-19T02:09:28;19.20;;;17.20;;
10851;SDS011;5479;52.046;6.314;2022-08-19T02:11:58;17.50;;;15.80;;
10851;SDS011;5479;52.046;6.314;2022-08-19T02:14:32;20.10;;;18.17;;
10851;SDS011;5479;52.046;6.314;2022-08-19T02:17:01;20.10;;;18.10;;
10851;SDS011;5479;52.046;6.314;2022-08-19T02:19:29;18.60;;;16.73;;
10851;SDS011;5479;52.046;6.314;2022-08-19T02:21:59;18.90;;;16.90;;
10851;SDS011;5479;52.046;6.314;2022-08-19T02:24:27;20.13;;;18.13;;
10851;SDS011;5479;52.046;6.314;2022-08-19T02:26:57;19.03;;;17.13;;
10851;SDS011;5479;52.046;6.314;2022-08-19T02:29:26;20.43;;;17.47;;
10851;SDS011;5479;52.046;6.314;2022-08-19T02:31:56;19.07;;;17.07;;
10851;SDS011;5479;52.046;6.314;2022-08-19T02:34:24;17.90;;;16.10;;
10851;SDS011;5479;52.046;6.314;2022-08-19T02:36:52;19.17;;;17.17;;
10851;SDS011;5479;52.046;6.314;2022-08-19T02:39:20;20.13;;;18.13;;
10851;SDS011;5479;52.046;6.314;2022-08-19T02:41:47;20.30;;;18.20;;
10851;SDS011;5479;52.046;6.314;2022-08-19T02:44:15;20.47;;;18.37;;
10851;SDS011;5479;52.046;6.314;2022-08-19T02:46:44;21.53;;;19.33;;
10851;SDS011;5479;52.046;6.314;2022-08-19T02:49:14;20.70;;;18.60;;
10851;SDS011;5479;52.046;6.314;2022-08-19T02:51:43;21.37;;;19.13;;
10851;SDS011;5479;52.046;6.314;2022-08-19T02:54:12;22.60;;;19.70;;
10851;SDS011;5479;52.046;6.314;2022-08-19T02:56:42;21.80;;;19.60;;
10851;SDS011;5479;52.046;6.314;2022-08-19T02:59:11;20.97;;;18.87;;
10851;SDS011;5479;52.046;6.314;2022-08-19T03:01:40;21.97;;;19.77;;
10851;SDS011;5479;52.046;6.314;2022-08-19T03:04:10;20.73;;;18.63;;
10851;SDS011;5479;52.046;6.314;2022-08-19T03:06:43;21.03;;;18.93;;
10851;SDS011;5479;52.046;6.314;2022-08-19T03:09:13;23.13;;;19.33;;
10851;SDS011;5479;52.046;6.314;2022-08-19T03:11:42;17.23;;;15.53;;
10851;SDS011;5479;52.046;6.314;2022-08-19T03:14:11;17.60;;;15.83;;
10851;SDS011;5479;52.046;6.314;2022-08-19T03:16:41;17.07;;;15.33;;
10851;SDS011;5479;52.046;6.314;2022-08-19T03:19:11;17.87;;;16.07;;
10851;SDS011;5479;52.046;6.314;2022-08-19T03:21:39;16.77;;;15.10;;
10851;SDS011;5479;52.046;6.314;2022-08-19T03:24:08;15.27;;;13.67;;
10851;SDS011;5479;52.046;6.314;2022-08-19T03:26:38;16.23;;;13.13;;
10851;SDS011;5479;52.046;6.314;2022-08-19T03:29:09;13.13;;;11.83;;
10851;SDS011;5479;52.046;6.314;2022-08-19T03:31:38;16.13;;;14.53;;
10851;SDS011;5479;52.046;6.314;2022-08-19T03:34:07;17.03;;;15.33;;
10851;SDS011;5479;52.046;6.314;2022-08-19T03:36:37;15.63;;;13.97;;
10851;SDS011;5479;52.046;6.314;2022-08-19T03:39:05;14.33;;;12.83;;
10851;SDS011;5479;52.046;6.314;2022-08-19T03:41:38;14.10;;;12.37;;
10851;SDS011;5479;52.046;6.314;2022-08-19T03:44:07;13.53;;;12.13;;
10851;SDS011;5479;52.046;6.314;2022-08-19T03:46:36;14.87;;;13.37;;
10851;SDS011;5479;52.046;6.314;2022-08-19T03:49:04;17.03;;;15.20;;
10851;SDS011;5479;52.046;6.314;2022-08-19T03:51:34;17.70;;;15.97;;
10851;SDS011;5479;52.046;6.314;2022-08-19T03:54:06;20.47;;;18.37;;
10851;SDS011;5479;52.046;6.314;2022-08-19T03:56:38;19.97;;;17.87;;
10851;SDS011;5479;52.046;6.314;2022-08-19T03:59:09;20.67;;;18.63;;
10851;SDS011;5479;52.046;6.314;2022-08-19T04:01:39;24.73;;;21.50;;
10851;SDS011;5479;52.046;6.314;2022-08-19T04:04:08;22.23;;;20.03;;
10851;SDS011;5479;52.046;6.314;2022-08-19T04:06:36;22.57;;;20.17;;
10851;SDS011;5479;52.046;6.314;2022-08-19T04:09:07;25.20;;;22.60;;
10851;SDS011;5479;52.046;6.314;2022-08-19T04:11:38;23.83;;;21.50;;
10851;SDS011;5479;52.046;6.314;2022-08-19T04:16:45;25.23;;;22.40;;
10851;SDS011;5479;52.046;6.314;2022-08-19T04:19:15;23.10;;;20.70;;
10851;SDS011;5479;52.046;6.314;2022-08-19T04:21:45;24.57;;;22.07;;
10851;SDS011;5479;52.046;6.314;2022-08-19T04:24:16;24.73;;;21.67;;
10851;SDS011;5479;52.046;6.314;2022-08-19T04:26:46;23.40;;;20.90;;
10851;SDS011;5479;52.046;6.314;2022-08-19T04:29:17;25.33;;;21.67;;
10851;SDS011;5479;52.046;6.314;2022-08-19T04:31:51;24.90;;;22.37;;
10851;SDS011;5479;52.046;6.314;2022-08-19T04:34:21;24.20;;;21.80;;
10851;SDS011;5479;52.046;6.314;2022-08-19T04:36:53;23.03;;;20.63;;
10851;SDS011;5479;52.046;6.314;2022-08-19T04:39:24;24.40;;;21.80;;
10851;SDS011;5479;52.046;6.314;2022-08-19T04:42:17;24.37;;;21.87;;
10851;SDS011;5479;52.046;6.314;2022-08-19T04:45:07;23.93;;;21.43;;
10851;SDS011;5479;52.046;6.314;2022-08-19T04:47:37;24.37;;;21.97;;
10851;SDS011;5479;52.046;6.314;2022-08-19T04:50:14;24.27;;;21.77;;
10851;SDS011;5479;52.046;6.314;2022-08-19T04:52:43;23.80;;;21.50;;
10851;SDS011;5479;52.046;6.314;2022-08-19T04:55:11;21.87;;;19.67;;
10851;SDS011;5479;52.046;6.314;2022-08-19T04:57:42;23.80;;;21.40;;
10851;SDS011;5479;52.046;6.314;2022-08-19T05:00:10;21.73;;;19.53;;
10851;SDS011;5479;52.046;6.314;2022-08-19T05:02:42;20.23;;;18.23;;
10851;SDS011;5479;52.046;6.314;2022-08-19T05:05:11;18.67;;;16.83;;
10851;SDS011;5479;52.046;6.314;2022-08-19T05:07:39;15.53;;;14.03;;
10851;SDS011;5479;52.046;6.314;2022-08-19T05:10:09;13.60;;;12.10;;
10851;SDS011;5479;52.046;6.314;2022-08-19T05:12:37;13.33;;;12.03;;
10851;SDS011;5479;52.046;6.314;2022-08-19T05:15:07;13.30;;;12.00;;
10851;SDS011;5479;52.046;6.314;2022-08-19T05:17:38;13.73;;;12.43;;
10851;SDS011;5479;52.046;6.314;2022-08-19T05:20:28;13.10;;;11.90;;
10851;SDS011;5479;52.046;6.314;2022-08-19T05:23:15;13.37;;;12.07;;
10851;SDS011;5479;52.046;6.314;2022-08-19T05:25:43;13.93;;;12.57;;
10851;SDS011;5479;52.046;6.314;2022-08-19T05:28:11;14.40;;;13.00;;
10851;SDS011;5479;52.046;6.314;2022-08-19T05:30:41;14.73;;;13.30;;
10851;SDS011;5479;52.046;6.314;2022-08-19T05:33:11;13.63;;;12.33;;
10851;SDS011;5479;52.046;6.314;2022-08-19T05:35:39;14.17;;;12.87;;
10851;SDS011;5479;52.046;6.314;2022-08-19T05:38:12;13.23;;;12.03;;
10851;SDS011;5479;52.046;6.314;2022-08-19T05:40:40;15.07;;;13.70;;
10851;SDS011;5479;52.046;6.314;2022-08-19T05:43:15;15.07;;;13.67;;
10851;SDS011;5479;52.046;6.314;2022-08-19T05:45:45;17.80;;;16.10;;
10851;SDS011;5479;52.046;6.314;2022-08-19T05:48:13;18.47;;;16.60;;
10851;SDS011;5479;52.046;6.314;2022-08-19T05:50:46;18.57;;;16.83;;
10851;SDS011;5479;52.046;6.314;2022-08-19T05:53:16;19.33;;;17.43;;
10851;SDS011;5479;52.046;6.314;2022-08-19T05:55:46;18.73;;;16.93;;
10851;SDS011;5479;52.046;6.314;2022-08-19T05:58:15;18.63;;;16.87;;
10851;SDS011;5479;52.046;6.314;2022-08-19T06:00:46;19.10;;;17.23;;
10851;SDS011;5479;52.046;6.314;2022-08-19T06:03:37;19.50;;;17.60;;
10851;SDS011;5479;52.046;6.314;2022-08-19T06:06:06;20.30;;;18.30;;
10851;SDS011;5479;52.046;6.314;2022-08-19T06:08:37;19.90;;;18.00;;
10851;SDS011;5479;52.046;6.314;2022-08-19T06:11:13;20.57;;;18.67;;
10851;SDS011;5479;52.046;6.314;2022-08-19T06:13:43;22.53;;;20.43;;
10851;SDS011;5479;52.046;6.314;2022-08-19T06:16:18;21.90;;;19.77;;
10851;SDS011;5479;52.046;6.314;2022-08-19T06:18:49;23.30;;;21.00;;
10851;SDS011;5479;52.046;6.314;2022-08-19T06:21:19;21.83;;;19.73;;
10851;SDS011;5479;52.046;6.314;2022-08-19T06:23:50;19.43;;;17.63;;
10851;SDS011;5479;52.046;6.314;2022-08-19T06:26:19;19.73;;;17.83;;
10851;SDS011;5479;52.046;6.314;2022-08-19T06:28:50;22.87;;;20.67;;
10851;SDS011;5479;52.046;6.314;2022-08-19T06:31:21;24.83;;;22.33;;
10851;SDS011;5479;52.046;6.314;2022-08-19T06:33:50;24.57;;;22.00;;
10851;SDS011;5479;52.046;6.314;2022-08-19T06:36:21;25.23;;;22.73;;
10851;SDS011;5479;52.046;6.314;2022-08-19T06:38:53;26.40;;;23.70;;
10851;SDS011;5479;52.046;6.314;2022-08-19T06:41:23;26.50;;;23.70;;
10851;SDS011;5479;52.046;6.314;2022-08-19T06:43:51;24.85;;;22.38;;
10851;SDS011;5479;52.046;6.314;2022-08-19T06:46:25;25.70;;;23.23;;
10851;SDS011;5479;52.046;6.314;2022-08-19T06:48:54;24.52;;;22.20;;
10851;SDS011;5479;52.046;6.314;2022-08-19T06:51:21;24.50;;;22.10;;
10851;SDS011;5479;52.046;6.314;2022-08-19T06:53:51;22.75;;;20.50;;
10851;SDS011;5479;52.046;6.314;2022-08-19T06:56:20;21.25;;;19.25;;
10851;SDS011;5479;52.046;6.314;2022-08-19T06:58:51;19.63;;;17.73;;
10851;SDS011;5479;52.046;6.314;2022-08-19T07:01:19;19.00;;;17.23;;
10851;SDS011;5479;52.046;6.314;2022-08-19T07:03:49;17.95;;;16.15;;
10851;SDS011;5479;52.046;6.314;2022-08-19T07:06:17;19.75;;;18.05;;
10851;SDS011;5479;52.046;6.314;2022-08-19T07:08:50;15.45;;;14.15;;
10851;SDS011;5479;52.046;6.314;2022-08-19T07:11:26;20.02;;;18.17;;
10851;SDS011;5479;52.046;6.314;2022-08-19T07:13:55;19.75;;;17.95;;
10851;SDS011;5479;52.046;6.314;2022-08-19T07:16:23;23.02;;;21.02;;
10851;SDS011;5479;52.046;6.314;2022-08-19T07:18:54;20.02;;;18.23;;
10851;SDS011;5479;52.046;6.314;2022-08-19T07:21:24;21.92;;;19.92;;
10851;SDS011;5479;52.046;6.314;2022-08-19T07:23:56;23.55;;;21.42;;
10851;SDS011;5479;52.046;6.314;2022-08-19T07:26:28;19.58;;;17.75;;
10851;SDS011;5479;52.046;6.314;2022-08-19T07:28:58;22.48;;;20.27;;
10851;SDS011;5479;52.046;6.314;2022-08-19T07:31:28;22.88;;;20.80;;
10851;SDS011;5479;52.046;6.314;2022-08-19T07:33:59;19.88;;;18.17;;
10851;SDS011;5479;52.046;6.314;2022-08-19T07:36:28;21.92;;;19.83;;
10851;SDS011;5479;52.046;6.314;2022-08-19T07:38:59;20.08;;;18.27;;
10851;SDS011;5479;52.046;6.314;2022-08-19T07:41:29;16.27;;;14.80;;
10851;SDS011;5479;52.046;6.314;2022-08-19T07:43:58;18.38;;;16.67;;
10851;SDS011;5479;52.046;6.314;2022-08-19T07:46:29;21.80;;;19.67;;
10851;SDS011;5479;52.046;6.314;2022-08-19T07:49:01;23.75;;;21.52;;
10851;SDS011;5479;52.046;6.314;2022-08-19T07:51:30;22.15;;;20.15;;
10851;SDS011;5479;52.046;6.314;2022-08-19T07:54:00;22.92;;;20.90;;
10851;SDS011;5479;52.046;6.314;2022-08-19T07:56:28;20.42;;;18.52;;
10851;SDS011;5479;52.046;6.314;2022-08-19T07:58:56;23.10;;;21.10;;
10851;SDS011;5479;52.046;6.314;2022-08-19T08:01:25;23.48;;;21.42;;
10851;SDS011;5479;52.046;6.314;2022-08-19T08:03:55;24.75;;;22.45;;
10851;SDS011;5479;52.046;6.314;2022-08-19T08:06:43;25.35;;;22.95;;
10851;SDS011;5479;52.046;6.314;2022-08-19T08:09:34;21.50;;;19.60;;
10851;SDS011;5479;52.046;6.314;2022-08-19T08:12:05;23.15;;;21.17;;
10851;SDS011;5479;52.046;6.314;2022-08-19T08:14:37;21.88;;;19.73;;
10851;SDS011;5479;52.046;6.314;2022-08-19T08:17:10;22.20;;;20.15;;
10851;SDS011;5479;52.046;6.314;2022-08-19T08:19:39;21.20;;;19.30;;
10851;SDS011;5479;52.046;6.314;2022-08-19T08:22:11;21.05;;;19.00;;
10851;SDS011;5479;52.046;6.314;2022-08-19T08:25:03;25.52;;;23.23;;
10851;SDS011;5479;52.046;6.314;2022-08-19T08:27:35;23.75;;;21.42;;
10851;SDS011;5479;52.046;6.314;2022-08-19T08:30:06;29.17;;;26.40;;
10851;SDS011;5479;52.046;6.314;2022-08-19T08:32:36;23.15;;;21.02;;
10851;SDS011;5479;52.046;6.314;2022-08-19T08:35:05;25.52;;;23.23;;
10851;SDS011;5479;52.046;6.314;2022-08-19T08:37:37;24.63;;;22.42;;
10851;SDS011;5479;52.046;6.314;2022-08-19T08:40:07;28.25;;;25.63;;
10851;SDS011;5479;52.046;6.314;2022-08-19T08:42:49;30.90;;;27.80;;
10851;SDS011;5479;52.046;6.314;2022-08-19T08:45:24;31.83;;;28.73;;
10851;SDS011;5479;52.046;6.314;2022-08-19T08:47:53;30.77;;;27.95;;
10851;SDS011;5479;52.046;6.314;2022-08-19T08:50:31;29.95;;;27.15;;
10851;SDS011;5479;52.046;6.314;2022-08-19T08:53:05;29.98;;;27.15;;
10851;SDS011;5479;52.046;6.314;2022-08-19T08:55:36;23.98;;;21.75;;
10851;SDS011;5479;52.046;6.314;2022-08-19T08:58:07;30.63;;;27.75;;
10851;SDS011;5479;52.046;6.314;2022-08-19T09:00:41;31.17;;;28.17;;
10851;SDS011;5479;52.046;6.314;2022-08-19T09:03:16;32.25;;;29.17;;
10851;SDS011;5479;52.046;6.314;2022-08-19T09:05:48;29.42;;;26.63;;
10851;SDS011;5479;52.046;6.314;2022-08-19T09:08:30;29.08;;;26.48;;
10851;SDS011;5479;52.046;6.314;2022-08-19T09:11:06;31.42;;;28.42;;
10851;SDS011;5479;52.046;6.314;2022-08-19T09:13:39;29.60;;;26.67;;
10851;SDS011;5479;52.046;6.314;2022-08-19T09:16:18;36.00;;;32.58;;
10851;SDS011;5479;52.046;6.314;2022-08-19T09:18:51;30.02;;;26.98;;
10851;SDS011;5479;52.046;6.314;2022-08-19T09:21:24;30.08;;;27.10;;
10851;SDS011;5479;52.046;6.314;2022-08-19T09:23:55;32.70;;;29.50;;
10851;SDS011;5479;52.046;6.314;2022-08-19T09:26:24;34.78;;;31.35;;
10851;SDS011;5479;52.046;6.314;2022-08-19T09:28:53;36.25;;;32.35;;
10851;SDS011;5479;52.046;6.314;2022-08-19T09:31:24;38.75;;;34.95;;
10851;SDS011;5479;52.046;6.314;2022-08-19T09:33:54;38.38;;;34.67;;
10851;SDS011;5479;52.046;6.314;2022-08-19T09:36:24;40.47;;;36.28;;
10851;SDS011;5479;52.046;6.314;2022-08-19T09:38:56;35.17;;;31.65;;
10851;SDS011;5479;52.046;6.314;2022-08-19T09:41:24;38.08;;;34.22;;
10851;SDS011;5479;52.046;6.314;2022-08-19T09:43:54;36.67;;;32.90;;
10851;SDS011;5479;52.046;6.314;2022-08-19T09:46:25;33.10;;;29.80;;
10851;SDS011;5479;52.046;6.314;2022-08-19T09:48:56;34.75;;;31.30;;
10851;SDS011;5479;52.046;6.314;2022-08-19T09:51:27;26.23;;;23.58;;
10851;SDS011;5479;52.046;6.314;2022-08-19T09:54:00;25.67;;;23.02;;
10851;SDS011;5479;52.046;6.314;2022-08-19T09:56:29;24.90;;;22.38;;
10851;SDS011;5479;52.046;6.314;2022-08-19T09:58:58;23.58;;;21.25;;
10851;SDS011;5479;52.046;6.314;2022-08-19T10:01:27;25.38;;;22.85;;
10851;SDS011;5479;52.046;6.314;2022-08-19T10:03:58;25.65;;;23.08;;
10851;SDS011;5479;52.046;6.314;2022-08-19T10:06:27;20.63;;;18.60;;
10851;SDS011;5479;52.046;6.314;2022-08-19T10:09:00;15.90;;;14.27;;
10851;SDS011;5479;52.046;6.314;2022-08-19T10:11:31;21.38;;;19.27;;
10851;SDS011;5479;52.046;6.314;2022-08-19T10:14:02;20.85;;;18.85;;
10851;SDS011;5479;52.046;6.314;2022-08-19T10:16:33;21.60;;;19.55;;
10851;SDS011;5479;52.046;6.314;2022-08-19T10:19:03;20.30;;;18.45;;
10851;SDS011;5479;52.046;6.314;2022-08-19T10:21:31;24.98;;;22.48;;
10851;SDS011;5479;52.046;6.314;2022-08-19T10:24:04;23.17;;;20.77;;
10851;SDS011;5479;52.046;6.314;2022-08-19T10:26:33;21.23;;;19.13;;
10851;SDS011;5479;52.046;6.314;2022-08-19T10:29:03;15.25;;;13.85;;
10851;SDS011;5479;52.046;6.314;2022-08-19T10:31:33;19.63;;;17.73;;
10851;SDS011;5479;52.046;6.314;2022-08-19T10:34:02;19.75;;;17.90;;
10851;SDS011;5479;52.046;6.314;2022-08-19T10:36:29;15.27;;;13.88;;
10851;SDS011;5479;52.046;6.314;2022-08-19T10:39:05;14.43;;;11.80;;
10851;SDS011;5479;52.046;6.314;2022-08-19T10:41:36;16.65;;;14.90;;
10851;SDS011;5479;52.046;6.314;2022-08-19T10:44:10;16.67;;;14.90;;
10851;SDS011;5479;52.046;6.314;2022-08-19T10:46:40;15.98;;;14.07;;
10851;SDS011;5479;52.046;6.314;2022-08-19T10:49:11;14.27;;;12.82;;
10851;SDS011;5479;52.046;6.314;2022-08-19T10:51:40;17.42;;;15.77;;
10851;SDS011;5479;52.046;6.314;2022-08-19T10:54:27;16.85;;;15.15;;
10851;SDS011;5479;52.046;6.314;2022-08-19T10:57:09;19.33;;;17.40;;
10851;SDS011;5479;52.046;6.314;2022-08-19T10:59:37;16.77;;;14.98;;
10851;SDS011;5479;52.046;6.314;2022-08-19T11:02:07;15.65;;;13.77;;
10851;SDS011;5479;52.046;6.314;2022-08-19T11:04:37;17.65;;;15.85;;
10851;SDS011;5479;52.046;6.314;2022-08-19T11:07:05;27.85;;;25.17;;
10851;SDS011;5479;52.046;6.314;2022-08-19T11:09:38;24.42;;;21.90;;
10851;SDS011;5479;52.046;6.314;2022-08-19T11:12:08;24.40;;;22.00;;
10851;SDS011;5479;52.046;6.314;2022-08-19T11:14:40;24.52;;;21.98;;
10851;SDS011;5479;52.046;6.314;2022-08-19T11:17:08;28.08;;;25.10;;
10851;SDS011;5479;52.046;6.314;2022-08-19T11:19:38;25.75;;;23.15;;
10851;SDS011;5479;52.046;6.314;2022-08-19T11:22:08;25.80;;;22.85;;
10851;SDS011;5479;52.046;6.314;2022-08-19T11:24:38;27.58;;;24.60;;
10851;SDS011;5479;52.046;6.314;2022-08-19T11:27:07;26.70;;;23.90;;
10851;SDS011;5479;52.046;6.314;2022-08-19T11:29:40;28.77;;;25.73;;
10851;SDS011;5479;52.046;6.314;2022-08-19T11:32:09;27.35;;;23.38;;
10851;SDS011;5479;52.046;6.314;2022-08-19T11:34:39;23.95;;;21.08;;
10851;SDS011;5479;52.046;6.314;2022-08-19T11:37:07;24.33;;;21.73;;
10851;SDS011;5479;52.046;6.314;2022-08-19T11:39:35;15.73;;;12.95;;
10851;SDS011;5479;52.046;6.314;2022-08-19T11:42:08;18.20;;;16.30;;
10851;SDS011;5479;52.046;6.314;2022-08-19T11:44:56;22.38;;;19.20;;
10851;SDS011;5479;52.046;6.314;2022-08-19T11:47:24;22.25;;;19.88;;
10851;SDS011;5479;52.046;6.314;2022-08-19T11:49:52;17.33;;;15.02;;
10851;SDS011;5479;52.046;6.314;2022-08-19T11:52:20;18.40;;;15.25;;
10851;SDS011;5479;52.046;6.314;2022-08-19T11:54:51;15.80;;;13.32;;
10851;SDS011;5479;52.046;6.314;2022-08-19T11:57:22;12.23;;;10.55;;
10851;SDS011;5479;52.046;6.314;2022-08-19T11:59:51;12.57;;;10.82;;
10851;SDS011;5479;52.046;6.314;2022-08-19T12:02:20;12.43;;;11.13;;
10851;SDS011;5479;52.046;6.314;2022-08-19T12:04:48;18.73;;;13.18;;
10851;SDS011;5479;52.046;6.314;2022-08-19T12:07:16;12.82;;;10.65;;
10851;SDS011;5479;52.046;6.314;2022-08-19T12:09:45;12.60;;;9.88;;
10851;SDS011;5479;52.046;6.314;2022-08-19T12:12:13;13.98;;;11.23;;
10851;SDS011;5479;52.046;6.314;2022-08-19T12:14:43;14.43;;;10.70;;
10851;SDS011;5479;52.046;6.314;2022-08-19T12:17:12;12.40;;;9.95;;
10851;SDS011;5479;52.046;6.314;2022-08-19T12:19:40;17.98;;;9.88;;
10851;SDS011;5479;52.046;6.314;2022-08-19T12:22:10;11.65;;;9.25;;
10851;SDS011;5479;52.046;6.314;2022-08-19T12:24:39;12.82;;;10.80;;
10851;SDS011;5479;52.046;6.314;2022-08-19T12:27:07;14.85;;;12.13;;
10851;SDS011;5479;52.046;6.314;2022-08-19T12:29:35;14.45;;;11.40;;
10851;SDS011;5479;52.046;6.314;2022-08-19T12:32:05;12.32;;;10.30;;
10851;SDS011;5479;52.046;6.314;2022-08-19T12:34:33;17.90;;;13.68;;
10851;SDS011;5479;52.046;6.314;2022-08-19T12:37:05;14.25;;;12.73;;
10851;SDS011;5479;52.046;6.314;2022-08-19T12:39:34;15.73;;;12.63;;
10851;SDS011;5479;52.046;6.314;2022-08-19T12:42:03;15.48;;;13.43;;
10851;SDS011;5479;52.046;6.314;2022-08-19T12:44:34;21.70;;;15.82;;
10851;SDS011;5479;52.046;6.314;2022-08-19T12:47:02;17.27;;;15.23;;
10851;SDS011;5479;52.046;6.314;2022-08-19T12:52:03;20.10;;;16.38;;
10851;SDS011;5479;52.046;6.314;2022-08-19T12:54:32;23.83;;;16.73;;
10851;SDS011;5479;52.046;6.314;2022-08-19T12:57:00;14.77;;;12.77;;
10851;SDS011;5479;52.046;6.314;2022-08-19T12:59:34;16.50;;;14.25;;
10851;SDS011;5479;52.046;6.314;2022-08-19T13:02:03;14.38;;;12.15;;
10851;SDS011;5479;52.046;6.314;2022-08-19T13:04:37;15.85;;;12.93;;
10851;SDS011;5479;52.046;6.314;2022-08-19T13:07:07;16.83;;;13.73;;
10851;SDS011;5479;52.046;6.314;2022-08-19T13:09:36;16.13;;;12.30;;
10851;SDS011;5479;52.046;6.314;2022-08-19T13:12:07;17.08;;;14.43;;
10851;SDS011;5479;52.046;6.314;2022-08-19T13:14:39;18.98;;;14.35;;
10851;SDS011;5479;52.046;6.314;2022-08-19T13:17:07;16.58;;;14.32;;
10851;SDS011;5479;52.046;6.314;2022-08-19T13:19:39;19.27;;;15.98;;
10851;SDS011;5479;52.046;6.314;2022-08-19T13:22:07;17.63;;;14.18;;
10851;SDS011;5479;52.046;6.314;2022-08-19T13:24:35;21.92;;;16.98;;
10851;SDS011;5479;52.046;6.314;2022-08-19T13:27:04;21.58;;;16.73;;
10851;SDS011;5479;52.046;6.314;2022-08-19T13:29:34;17.63;;;15.27;;
10851;SDS011;5479;52.046;6.314;2022-08-19T13:32:20;16.80;;;14.63;;
10851;SDS011;5479;52.046;6.314;2022-08-19T13:35:11;18.52;;;13.88;;
10851;SDS011;5479;52.046;6.314;2022-08-19T13:37:39;15.60;;;12.63;;
10851;SDS011;5479;52.046;6.314;2022-08-19T13:40:12;16.90;;;13.35;;
10851;SDS011;5479;52.046;6.314;2022-08-19T13:42:44;16.38;;;14.15;;
10851;SDS011;5479;52.046;6.314;2022-08-19T13:45:15;21.10;;;14.68;;
10851;SDS011;5479;52.046;6.314;2022-08-19T13:47:44;16.52;;;13.70;;
10851;SDS011;5479;52.046;6.314;2022-08-19T13:50:15;18.38;;;14.45;;
10851;SDS011;5479;52.046;6.314;2022-08-19T13:52:44;18.38;;;15.35;;
10851;SDS011;5479;52.046;6.314;2022-08-19T13:55:14;17.77;;;13.23;;
10851;SDS011;5479;52.046;6.314;2022-08-19T13:57:42;16.42;;;12.43;;
10851;SDS011;5479;52.046;6.314;2022-08-19T14:00:12;15.23;;;11.13;;
10851;SDS011;5479;52.046;6.314;2022-08-19T14:02:45;13.65;;;11.70;;
10851;SDS011;5479;52.046;6.314;2022-08-19T14:05:15;12.05;;;9.55;;
10851;SDS011;5479;52.046;6.314;2022-08-19T14:07:43;16.80;;;13.32;;
10851;SDS011;5479;52.046;6.314;2022-08-19T14:10:12;17.20;;;13.77;;
10851;SDS011;5479;52.046;6.314;2022-08-19T14:12:40;14.63;;;12.90;;
10851;SDS011;5479;52.046;6.314;2022-08-19T14:15:09;14.73;;;11.75;;
10851;SDS011;5479;52.046;6.314;2022-08-19T14:17:39;15.40;;;13.02;;
10851;SDS011;5479;52.046;6.314;2022-08-19T14:20:10;13.48;;;10.68;;
10851;SDS011;5479;52.046;6.314;2022-08-19T14:22:43;18.08;;;14.55;;
10851;SDS011;5479;52.046;6.314;2022-08-19T14:25:17;17.17;;;15.32;;
10851;SDS011;5479;52.046;6.314;2022-08-19T14:27:46;18.23;;;16.05;;
10851;SDS011;5479;52.046;6.314;2022-08-19T14:30:17;16.95;;;15.15;;
10851;SDS011;5479;52.046;6.314;2022-08-19T14:32:46;18.38;;;14.73;;
10851;SDS011;5479;52.046;6.314;2022-08-19T14:35:15;16.55;;;14.55;;
10851;SDS011;5479;52.046;6.314;2022-08-19T14:37:45;17.80;;;15.95;;
10851;SDS011;5479;52.046;6.314;2022-08-19T14:40:14;20.33;;;16.17;;
10851;SDS011;5479;52.046;6.314;2022-08-19T14:42:45;17.27;;;15.48;;
10851;SDS011;5479;52.046;6.314;2022-08-19T14:45:15;20.20;;;18.10;;
10851;SDS011;5479;52.046;6.314;2022-08-19T14:47:43;19.58;;;16.80;;
10851;SDS011;5479;52.046;6.314;2022-08-19T14:50:11;19.90;;;17.63;;
10851;SDS011;5479;52.046;6.314;2022-08-19T14:52:40;20.95;;;17.83;;
10851;SDS011;5479;52.046;6.314;2022-08-19T14:55:10;18.25;;;16.27;;
10851;SDS011;5479;52.046;6.314;2022-08-19T14:57:39;19.65;;;17.20;;
10851;SDS011;5479;52.046;6.314;2022-08-19T15:00:08;22.27;;;16.48;;
10851;SDS011;5479;52.046;6.314;2022-08-19T15:02:41;19.20;;;17.20;;